sensor_id;sensor_type;location;lat;lon;timestamp;P1;durP1;ratioP1;P2;durP2;ratioP2
15385;SDS011;7791;47.246;9.648;2022-07-24T00:00:24;18.10;;;15.27;;
15385;SDS011;7791;47.246;9.648;2022-07-24T00:02:51;19.10;;;15.10;;
15385;SDS011;7791;47.246;9.648;2022-07-24T00:05:18;23.20;;;15.50;;
15385;SDS011;7791;47.246;9.648;2022-07-24T00:07:44;18.40;;;14.97;;
15385;SDS011;7791;47.246;9.648;2022-07-24T00:10:22;19.93;;;14.60;;
15385;SDS011;7791;47.246;9.648;2022-07-24T00:12:48;18.57;;;14.90;;
15385;SDS011;7791;47.246;9.648;2022-07-24T00:15:17;20.37;;;16.00;;
15385;SDS011;7791;47.246;9.648;2022-07-24T00:17:43;18.07;;;15.77;;
15385;SDS011;7791;47.246;9.648;2022-07-24T00:20:09;19.27;;;15.17;;
15385;SDS011;7791;47.246;9.648;2022-07-24T00:25:23;21.83;;;14.13;;
15385;SDS011;7791;47.246;9.648;2022-07-24T00:27:50;20.00;;;14.50;;
15385;SDS011;7791;47.246;9.648;2022-07-24T00:30:15;20.97;;;15.27;;
15385;SDS011;7791;47.246;9.648;2022-07-24T00:32:43;20.63;;;14.87;;
15385;SDS011;7791;47.246;9.648;2022-07-24T00:35:09;17.10;;;14.13;;
15385;SDS011;7791;47.246;9.648;2022-07-24T00:37:34;21.20;;;14.50;;
15385;SDS011;7791;47.246;9.648;2022-07-24T00:42:51;21.30;;;13.67;;
15385;SDS011;7791;47.246;9.648;2022-07-24T00:45:17;20.10;;;14.00;;
15385;SDS011;7791;47.246;9.648;2022-07-24T00:47:43;17.93;;;13.60;;
15385;SDS011;7791;47.246;9.648;2022-07-24T00:50:18;17.10;;;14.77;;
15385;SDS011;7791;47.246;9.648;2022-07-24T00:53:08;18.53;;;14.33;;
15385;SDS011;7791;47.246;9.648;2022-07-24T00:55:36;19.07;;;14.47;;
15385;SDS011;7791;47.246;9.648;2022-07-24T00:58:02;20.97;;;15.53;;
15385;SDS011;7791;47.246;9.648;2022-07-24T01:00:28;18.10;;;14.17;;
15385;SDS011;7791;47.246;9.648;2022-07-24T01:02:54;19.27;;;14.27;;
15385;SDS011;7791;47.246;9.648;2022-07-24T01:05:20;17.67;;;13.90;;
15385;SDS011;7791;47.246;9.648;2022-07-24T01:07:46;20.63;;;15.37;;
15385;SDS011;7791;47.246;9.648;2022-07-24T01:13:07;20.43;;;15.50;;
15385;SDS011;7791;47.246;9.648;2022-07-24T01:15:33;18.80;;;14.90;;
15385;SDS011;7791;47.246;9.648;2022-07-24T01:17:59;19.97;;;15.07;;
15385;SDS011;7791;47.246;9.648;2022-07-24T01:20:26;17.93;;;14.43;;
15385;SDS011;7791;47.246;9.648;2022-07-24T01:22:54;20.97;;;14.77;;
15385;SDS011;7791;47.246;9.648;2022-07-24T01:25:20;19.37;;;15.17;;
15385;SDS011;7791;47.246;9.648;2022-07-24T01:27:46;21.17;;;15.57;;
15385;SDS011;7791;47.246;9.648;2022-07-24T01:30:12;18.57;;;14.97;;
15385;SDS011;7791;47.246;9.648;2022-07-24T01:32:38;23.43;;;15.47;;
15385;SDS011;7791;47.246;9.648;2022-07-24T01:35:05;17.53;;;14.23;;
15385;SDS011;7791;47.246;9.648;2022-07-24T01:37:31;21.13;;;14.80;;
15385;SDS011;7791;47.246;9.648;2022-07-24T01:49:04;19.00;;;14.83;;
15385;SDS011;7791;47.246;9.648;2022-07-24T01:51:30;19.77;;;15.63;;
15385;SDS011;7791;47.246;9.648;2022-07-24T01:54:03;20.90;;;15.67;;
15385;SDS011;7791;47.246;9.648;2022-07-24T01:56:32;20.47;;;15.97;;
15385;SDS011;7791;47.246;9.648;2022-07-24T01:59:03;19.60;;;16.30;;
15385;SDS011;7791;47.246;9.648;2022-07-24T02:01:30;18.93;;;15.10;;
15385;SDS011;7791;47.246;9.648;2022-07-24T02:03:58;22.80;;;16.60;;
15385;SDS011;7791;47.246;9.648;2022-07-24T02:06:27;26.67;;;16.00;;
15385;SDS011;7791;47.246;9.648;2022-07-24T02:08:53;20.50;;;15.70;;
15385;SDS011;7791;47.246;9.648;2022-07-24T02:11:22;23.57;;;16.00;;
15385;SDS011;7791;47.246;9.648;2022-07-24T02:13:48;21.83;;;15.70;;
15385;SDS011;7791;47.246;9.648;2022-07-24T02:16:14;22.80;;;15.83;;
15385;SDS011;7791;47.246;9.648;2022-07-24T02:18:40;20.30;;;15.07;;
15385;SDS011;7791;47.246;9.648;2022-07-24T02:21:07;17.80;;;15.17;;
15385;SDS011;7791;47.246;9.648;2022-07-24T02:23:33;20.40;;;14.87;;
15385;SDS011;7791;47.246;9.648;2022-07-24T02:25:58;19.30;;;15.47;;
15385;SDS011;7791;47.246;9.648;2022-07-24T02:28:29;16.87;;;14.67;;
15385;SDS011;7791;47.246;9.648;2022-07-24T02:30:56;19.57;;;14.27;;
15385;SDS011;7791;47.246;9.648;2022-07-24T02:33:25;19.80;;;13.83;;
15385;SDS011;7791;47.246;9.648;2022-07-24T02:35:52;17.03;;;13.37;;
15385;SDS011;7791;47.246;9.648;2022-07-24T02:38:19;17.37;;;13.50;;
15385;SDS011;7791;47.246;9.648;2022-07-24T02:46:55;17.30;;;12.67;;
15385;SDS011;7791;47.246;9.648;2022-07-24T02:49:21;13.93;;;12.43;;
15385;SDS011;7791;47.246;9.648;2022-07-24T02:51:59;17.57;;;12.47;;
15385;SDS011;7791;47.246;9.648;2022-07-24T02:54:52;16.23;;;12.53;;
15385;SDS011;7791;47.246;9.648;2022-07-24T02:57:37;16.57;;;11.80;;
15385;SDS011;7791;47.246;9.648;2022-07-24T03:00:05;13.10;;;11.70;;
15385;SDS011;7791;47.246;9.648;2022-07-24T03:02:33;14.57;;;11.77;;
15385;SDS011;7791;47.246;9.648;2022-07-24T03:05:05;14.30;;;12.17;;
15385;SDS011;7791;47.246;9.648;2022-07-24T03:07:37;15.23;;;12.13;;
15385;SDS011;7791;47.246;9.648;2022-07-24T03:10:09;15.40;;;12.17;;
15385;SDS011;7791;47.246;9.648;2022-07-24T03:12:36;16.67;;;12.23;;
15385;SDS011;7791;47.246;9.648;2022-07-24T03:15:02;16.23;;;12.00;;
15385;SDS011;7791;47.246;9.648;2022-07-24T03:17:30;14.80;;;11.90;;
15385;SDS011;7791;47.246;9.648;2022-07-24T03:19:56;16.60;;;12.43;;
15385;SDS011;7791;47.246;9.648;2022-07-24T03:22:25;14.00;;;12.07;;
15385;SDS011;7791;47.246;9.648;2022-07-24T03:24:53;13.67;;;11.40;;
15385;SDS011;7791;47.246;9.648;2022-07-24T03:35:54;18.00;;;12.27;;
15385;SDS011;7791;47.246;9.648;2022-07-24T03:38:37;16.80;;;12.43;;
15385;SDS011;7791;47.246;9.648;2022-07-24T03:41:04;15.27;;;12.07;;
15385;SDS011;7791;47.246;9.648;2022-07-24T03:43:47;15.43;;;11.90;;
15385;SDS011;7791;47.246;9.648;2022-07-24T03:46:36;16.57;;;12.00;;
15385;SDS011;7791;47.246;9.648;2022-07-24T03:49:04;14.57;;;12.43;;
15385;SDS011;7791;47.246;9.648;2022-07-24T03:51:36;13.80;;;11.57;;
15385;SDS011;7791;47.246;9.648;2022-07-24T03:54:07;15.20;;;12.07;;
15385;SDS011;7791;47.246;9.648;2022-07-24T03:56:41;14.17;;;12.20;;
15385;SDS011;7791;47.246;9.648;2022-07-24T04:02:17;12.90;;;11.43;;
15385;SDS011;7791;47.246;9.648;2022-07-24T04:05:09;14.40;;;12.10;;
15385;SDS011;7791;47.246;9.648;2022-07-24T04:08:00;15.20;;;12.33;;
15385;SDS011;7791;47.246;9.648;2022-07-24T04:10:32;16.17;;;11.87;;
15385;SDS011;7791;47.246;9.648;2022-07-24T04:13:16;14.73;;;11.53;;
15385;SDS011;7791;47.246;9.648;2022-07-24T04:21:39;17.03;;;12.13;;
15385;SDS011;7791;47.246;9.648;2022-07-24T04:27:18;15.67;;;12.13;;
15385;SDS011;7791;47.246;9.648;2022-07-24T05:18:48;15.87;;;12.33;;
15385;SDS011;7791;47.246;9.648;2022-07-24T05:21:24;13.67;;;11.37;;
15385;SDS011;7791;47.246;9.648;2022-07-24T05:26:58;12.63;;;10.20;;
15385;SDS011;7791;47.246;9.648;2022-07-24T05:29:36;14.10;;;10.17;;
15385;SDS011;7791;47.246;9.648;2022-07-24T05:32:22;12.67;;;9.23;;
15385;SDS011;7791;47.246;9.648;2022-07-24T05:34:58;14.40;;;9.93;;
15385;SDS011;7791;47.246;9.648;2022-07-24T05:37:38;12.60;;;8.85;;
15385;SDS011;7791;47.246;9.648;2022-07-24T05:43:08;13.52;;;8.52;;
15385;SDS011;7791;47.246;9.648;2022-07-24T05:46:01;9.98;;;8.23;;
15385;SDS011;7791;47.246;9.648;2022-07-24T05:48:49;9.23;;;8.30;;
15385;SDS011;7791;47.246;9.648;2022-07-24T05:54:29;10.80;;;9.38;;
15385;SDS011;7791;47.246;9.648;2022-07-24T05:57:23;9.45;;;7.93;;
15385;SDS011;7791;47.246;9.648;2022-07-24T05:59:50;10.68;;;8.23;;
15385;SDS011;7791;47.246;9.648;2022-07-24T06:02:16;9.90;;;7.88;;
15385;SDS011;7791;47.246;9.648;2022-07-24T06:05:09;9.50;;;8.35;;
15385;SDS011;7791;47.246;9.648;2022-07-24T06:07:49;9.52;;;8.20;;
15385;SDS011;7791;47.246;9.648;2022-07-24T06:10:25;11.63;;;8.32;;
15385;SDS011;7791;47.246;9.648;2022-07-24T06:13:01;12.85;;;8.52;;
15385;SDS011;7791;47.246;9.648;2022-07-24T06:15:35;8.85;;;7.88;;
15385;SDS011;7791;47.246;9.648;2022-07-24T06:41:26;9.07;;;8.18;;
15385;SDS011;7791;47.246;9.648;2022-07-24T06:43:52;8.75;;;7.82;;
15385;SDS011;7791;47.246;9.648;2022-07-24T06:46:18;8.60;;;7.70;;
15385;SDS011;7791;47.246;9.648;2022-07-24T06:48:55;9.00;;;7.97;;
15385;SDS011;7791;47.246;9.648;2022-07-24T06:51:41;10.10;;;7.78;;
15385;SDS011;7791;47.246;9.648;2022-07-24T06:54:09;12.23;;;7.63;;
15385;SDS011;7791;47.246;9.648;2022-07-24T06:56:37;8.75;;;7.85;;
15385;SDS011;7791;47.246;9.648;2022-07-24T06:59:05;8.32;;;7.50;;
15385;SDS011;7791;47.246;9.648;2022-07-24T07:01:37;10.15;;;8.07;;
15385;SDS011;7791;47.246;9.648;2022-07-24T07:04:02;8.48;;;7.68;;
15385;SDS011;7791;47.246;9.648;2022-07-24T07:06:29;9.02;;;7.43;;
15385;SDS011;7791;47.246;9.648;2022-07-24T07:08:57;10.48;;;8.32;;
15385;SDS011;7791;47.246;9.648;2022-07-24T07:11:33;7.80;;;7.00;;
15385;SDS011;7791;47.246;9.648;2022-07-24T07:14:01;8.20;;;7.40;;
15385;SDS011;7791;47.246;9.648;2022-07-24T07:16:35;8.57;;;7.55;;
15385;SDS011;7791;47.246;9.648;2022-07-24T07:19:01;8.82;;;7.72;;
15385;SDS011;7791;47.246;9.648;2022-07-24T07:21:27;8.43;;;7.63;;
15385;SDS011;7791;47.246;9.648;2022-07-24T07:23:56;9.88;;;7.63;;
15385;SDS011;7791;47.246;9.648;2022-07-24T07:26:36;8.77;;;7.88;;
15385;SDS011;7791;47.246;9.648;2022-07-24T07:29:08;9.63;;;8.05;;
15385;SDS011;7791;47.246;9.648;2022-07-24T07:31:39;9.80;;;8.80;;
15385;SDS011;7791;47.246;9.648;2022-07-24T07:34:09;9.45;;;8.43;;
15385;SDS011;7791;47.246;9.648;2022-07-24T07:36:37;10.15;;;9.18;;
15385;SDS011;7791;47.246;9.648;2022-07-24T07:39:03;12.55;;;9.02;;
15385;SDS011;7791;47.246;9.648;2022-07-24T07:41:29;9.38;;;8.48;;
15385;SDS011;7791;47.246;9.648;2022-07-24T07:44:04;13.48;;;9.18;;
15385;SDS011;7791;47.246;9.648;2022-07-24T07:46:33;12.05;;;9.27;;
15385;SDS011;7791;47.246;9.648;2022-07-24T07:48:59;13.73;;;8.68;;
15385;SDS011;7791;47.246;9.648;2022-07-24T07:51:25;9.73;;;8.73;;
15385;SDS011;7791;47.246;9.648;2022-07-24T07:53:51;12.23;;;8.90;;
15385;SDS011;7791;47.246;9.648;2022-07-24T07:56:17;11.35;;;9.38;;
15385;SDS011;7791;47.246;9.648;2022-07-24T07:58:45;10.50;;;9.43;;
15385;SDS011;7791;47.246;9.648;2022-07-24T08:01:12;11.80;;;9.68;;
15385;SDS011;7791;47.246;9.648;2022-07-24T08:03:38;9.73;;;8.68;;
15385;SDS011;7791;47.246;9.648;2022-07-24T08:06:04;10.52;;;8.82;;
15385;SDS011;7791;47.246;9.648;2022-07-24T08:08:31;9.52;;;8.60;;
15385;SDS011;7791;47.246;9.648;2022-07-24T08:10:56;11.00;;;8.90;;
15385;SDS011;7791;47.246;9.648;2022-07-24T08:13:22;10.20;;;8.65;;
15385;SDS011;7791;47.246;9.648;2022-07-24T08:15:48;9.13;;;8.20;;
15385;SDS011;7791;47.246;9.648;2022-07-24T08:18:16;10.15;;;8.85;;
15385;SDS011;7791;47.246;9.648;2022-07-24T08:20:42;9.48;;;8.48;;
15385;SDS011;7791;47.246;9.648;2022-07-24T08:23:08;9.73;;;8.75;;
15385;SDS011;7791;47.246;9.648;2022-07-24T08:25:33;10.20;;;8.40;;
15385;SDS011;7791;47.246;9.648;2022-07-24T08:27:59;12.75;;;7.90;;
15385;SDS011;7791;47.246;9.648;2022-07-24T08:30:25;9.35;;;8.45;;
15385;SDS011;7791;47.246;9.648;2022-07-24T08:32:51;9.10;;;8.07;;
15385;SDS011;7791;47.246;9.648;2022-07-24T08:35:19;9.45;;;8.55;;
15385;SDS011;7791;47.246;9.648;2022-07-24T08:37:47;9.63;;;8.63;;
15385;SDS011;7791;47.246;9.648;2022-07-24T08:40:14;9.10;;;8.20;;
15385;SDS011;7791;47.246;9.648;2022-07-24T08:42:41;10.43;;;8.70;;
15385;SDS011;7791;47.246;9.648;2022-07-24T08:45:09;9.55;;;8.55;;
15385;SDS011;7791;47.246;9.648;2022-07-24T08:47:34;9.50;;;8.20;;
15385;SDS011;7791;47.246;9.648;2022-07-24T08:50:04;10.02;;;8.13;;
15385;SDS011;7791;47.246;9.648;2022-07-24T08:52:33;8.80;;;7.88;;
15385;SDS011;7791;47.246;9.648;2022-07-24T08:55:00;8.32;;;7.60;;
15385;SDS011;7791;47.246;9.648;2022-07-24T08:57:26;8.93;;;7.90;;
15385;SDS011;7791;47.246;9.648;2022-07-24T08:59:55;9.10;;;8.20;;
15385;SDS011;7791;47.246;9.648;2022-07-24T09:02:22;8.65;;;7.78;;
15385;SDS011;7791;47.246;9.648;2022-07-24T09:04:48;9.43;;;7.97;;
15385;SDS011;7791;47.246;9.648;2022-07-24T09:07:16;8.82;;;8.02;;
15385;SDS011;7791;47.246;9.648;2022-07-24T09:09:59;10.98;;;8.27;;
15385;SDS011;7791;47.246;9.648;2022-07-24T09:12:25;9.60;;;8.45;;
15385;SDS011;7791;47.246;9.648;2022-07-24T09:14:56;9.32;;;7.75;;
15385;SDS011;7791;47.246;9.648;2022-07-24T09:17:23;10.98;;;8.10;;
15385;SDS011;7791;47.246;9.648;2022-07-24T09:19:50;8.80;;;7.70;;
15385;SDS011;7791;47.246;9.648;2022-07-24T09:27:47;9.30;;;8.40;;
15385;SDS011;7791;47.246;9.648;2022-07-24T09:30:26;11.10;;;8.95;;
15385;SDS011;7791;47.246;9.648;2022-07-24T09:32:54;11.50;;;8.20;;
15385;SDS011;7791;47.246;9.648;2022-07-24T09:35:28;9.95;;;7.82;;
15385;SDS011;7791;47.246;9.648;2022-07-24T09:38:00;9.75;;;7.97;;
15385;SDS011;7791;47.246;9.648;2022-07-24T09:40:32;8.35;;;7.45;;
15385;SDS011;7791;47.246;9.648;2022-07-24T09:43:12;8.73;;;7.90;;
15385;SDS011;7791;47.246;9.648;2022-07-24T09:45:50;9.48;;;8.15;;
15385;SDS011;7791;47.246;9.648;2022-07-24T09:48:22;9.85;;;8.57;;
15385;SDS011;7791;47.246;9.648;2022-07-24T09:50:49;13.18;;;8.40;;
15385;SDS011;7791;47.246;9.648;2022-07-24T09:53:16;9.55;;;7.90;;
15385;SDS011;7791;47.246;9.648;2022-07-24T09:55:55;10.38;;;8.57;;
15385;SDS011;7791;47.246;9.648;2022-07-24T09:58:47;8.85;;;8.02;;
15385;SDS011;7791;47.246;9.648;2022-07-24T10:01:22;13.07;;;8.45;;
15385;SDS011;7791;47.246;9.648;2022-07-24T10:03:53;12.40;;;8.85;;
15385;SDS011;7791;47.246;9.648;2022-07-24T10:06:23;10.80;;;8.73;;
15385;SDS011;7791;47.246;9.648;2022-07-24T10:30:19;10.00;;;8.98;;
15385;SDS011;7791;47.246;9.648;2022-07-24T10:32:53;10.07;;;8.57;;
15385;SDS011;7791;47.246;9.648;2022-07-24T10:35:20;9.35;;;8.40;;
15385;SDS011;7791;47.246;9.648;2022-07-24T10:37:52;9.48;;;8.50;;
15385;SDS011;7791;47.246;9.648;2022-07-24T10:40:24;9.63;;;8.32;;
15385;SDS011;7791;47.246;9.648;2022-07-24T10:43:07;8.80;;;7.90;;
15385;SDS011;7791;47.246;9.648;2022-07-24T10:45:39;9.55;;;8.27;;
15385;SDS011;7791;47.246;9.648;2022-07-24T10:51:05;10.75;;;8.13;;
15385;SDS011;7791;47.246;9.648;2022-07-24T10:53:45;8.98;;;8.10;;
15385;SDS011;7791;47.246;9.648;2022-07-24T10:56:26;9.48;;;8.07;;
15385;SDS011;7791;47.246;9.648;2022-07-24T10:58:55;8.57;;;7.78;;
15385;SDS011;7791;47.246;9.648;2022-07-24T11:01:31;8.93;;;7.95;;
15385;SDS011;7791;47.246;9.648;2022-07-24T11:06:50;10.00;;;8.40;;
15385;SDS011;7791;47.246;9.648;2022-07-24T11:09:17;9.23;;;7.97;;
15385;SDS011;7791;47.246;9.648;2022-07-24T11:20:07;10.10;;;8.00;;
15385;SDS011;7791;47.246;9.648;2022-07-24T11:22:38;9.02;;;8.07;;
15385;SDS011;7791;47.246;9.648;2022-07-24T11:25:08;10.57;;;8.25;;
15385;SDS011;7791;47.246;9.648;2022-07-24T11:27:43;11.50;;;8.75;;
15385;SDS011;7791;47.246;9.648;2022-07-24T11:30:14;9.50;;;8.60;;
15385;SDS011;7791;47.246;9.648;2022-07-24T11:32:45;10.95;;;8.93;;
15385;SDS011;7791;47.246;9.648;2022-07-24T11:38:02;10.60;;;8.75;;
15385;SDS011;7791;47.246;9.648;2022-07-24T11:40:29;9.27;;;8.27;;
15385;SDS011;7791;47.246;9.648;2022-07-24T11:42:58;8.70;;;7.90;;
15385;SDS011;7791;47.246;9.648;2022-07-24T11:45:27;12.30;;;8.48;;
15385;SDS011;7791;47.246;9.648;2022-07-24T11:47:54;12.68;;;9.10;;
15385;SDS011;7791;47.246;9.648;2022-07-24T11:50:21;10.68;;;8.25;;
15385;SDS011;7791;47.246;9.648;2022-07-24T11:52:49;10.80;;;8.43;;
15385;SDS011;7791;47.246;9.648;2022-07-24T11:55:16;11.38;;;8.25;;
15385;SDS011;7791;47.246;9.648;2022-07-24T11:57:44;9.38;;;8.48;;
15385;SDS011;7791;47.246;9.648;2022-07-24T12:00:11;9.38;;;8.35;;
15385;SDS011;7791;47.246;9.648;2022-07-24T12:02:42;10.18;;;8.95;;
15385;SDS011;7791;47.246;9.648;2022-07-24T12:08:02;10.88;;;8.55;;
15385;SDS011;7791;47.246;9.648;2022-07-24T12:10:39;10.50;;;8.95;;
15385;SDS011;7791;47.246;9.648;2022-07-24T12:13:05;9.65;;;8.70;;
15385;SDS011;7791;47.246;9.648;2022-07-24T12:15:31;10.38;;;8.68;;
15385;SDS011;7791;47.246;9.648;2022-07-24T12:17:58;9.90;;;8.93;;
15385;SDS011;7791;47.246;9.648;2022-07-24T12:20:26;9.63;;;8.63;;
15385;SDS011;7791;47.246;9.648;2022-07-24T12:22:55;11.73;;;8.93;;
15385;SDS011;7791;47.246;9.648;2022-07-24T12:25:22;10.75;;;8.90;;
15385;SDS011;7791;47.246;9.648;2022-07-24T12:27:48;9.57;;;8.60;;
15385;SDS011;7791;47.246;9.648;2022-07-24T12:30:17;11.40;;;9.80;;
15385;SDS011;7791;47.246;9.648;2022-07-24T12:32:54;10.73;;;9.45;;
15385;SDS011;7791;47.246;9.648;2022-07-24T12:35:22;11.27;;;9.02;;
15385;SDS011;7791;47.246;9.648;2022-07-24T12:37:48;9.70;;;8.73;;
15385;SDS011;7791;47.246;9.648;2022-07-24T12:40:23;10.75;;;9.32;;
15385;SDS011;7791;47.246;9.648;2022-07-24T12:42:55;11.48;;;8.82;;
15385;SDS011;7791;47.246;9.648;2022-07-24T12:45:21;11.00;;;9.90;;
15385;SDS011;7791;47.246;9.648;2022-07-24T12:48:10;9.98;;;8.95;;
15385;SDS011;7791;47.246;9.648;2022-07-24T12:56:52;11.10;;;9.82;;
15385;SDS011;7791;47.246;9.648;2022-07-24T12:59:24;10.05;;;8.80;;
15385;SDS011;7791;47.246;9.648;2022-07-24T13:01:52;10.43;;;9.50;;
15385;SDS011;7791;47.246;9.648;2022-07-24T13:04:21;11.75;;;8.88;;
15385;SDS011;7791;47.246;9.648;2022-07-24T13:09:49;10.80;;;9.43;;
15385;SDS011;7791;47.246;9.648;2022-07-24T13:12:17;10.05;;;9.00;;
15385;SDS011;7791;47.246;9.648;2022-07-24T13:14:45;10.00;;;9.00;;
15385;SDS011;7791;47.246;9.648;2022-07-24T13:17:11;9.95;;;8.82;;
15385;SDS011;7791;47.246;9.648;2022-07-24T13:19:40;11.77;;;9.13;;
15385;SDS011;7791;47.246;9.648;2022-07-24T13:25:15;10.80;;;9.13;;
15385;SDS011;7791;47.246;9.648;2022-07-24T13:27:44;10.30;;;8.65;;
15385;SDS011;7791;47.246;9.648;2022-07-24T13:30:11;10.07;;;8.85;;
15385;SDS011;7791;47.246;9.648;2022-07-24T13:32:39;12.05;;;9.10;;
15385;SDS011;7791;47.246;9.648;2022-07-24T13:35:05;10.30;;;9.23;;
15385;SDS011;7791;47.246;9.648;2022-07-24T13:40:35;13.88;;;9.10;;
15385;SDS011;7791;47.246;9.648;2022-07-24T13:43:02;10.88;;;8.90;;
15385;SDS011;7791;47.246;9.648;2022-07-24T13:45:29;9.93;;;9.02;;
15385;SDS011;7791;47.246;9.648;2022-07-24T13:47:55;9.15;;;8.25;;
15385;SDS011;7791;47.246;9.648;2022-07-24T13:50:22;11.18;;;9.10;;
15385;SDS011;7791;47.246;9.648;2022-07-24T13:52:51;11.25;;;9.70;;
15385;SDS011;7791;47.246;9.648;2022-07-24T13:55:17;10.88;;;9.77;;
15385;SDS011;7791;47.246;9.648;2022-07-24T13:57:43;11.43;;;9.40;;
15385;SDS011;7791;47.246;9.648;2022-07-24T14:00:13;12.45;;;9.20;;
15385;SDS011;7791;47.246;9.648;2022-07-24T14:02:39;10.80;;;9.23;;
15385;SDS011;7791;47.246;9.648;2022-07-24T14:05:06;10.77;;;9.00;;
15385;SDS011;7791;47.246;9.648;2022-07-24T14:07:47;9.90;;;8.90;;
15385;SDS011;7791;47.246;9.648;2022-07-24T14:10:13;8.95;;;8.05;;
15385;SDS011;7791;47.246;9.648;2022-07-24T14:12:40;9.98;;;8.90;;
15385;SDS011;7791;47.246;9.648;2022-07-24T14:15:06;9.98;;;8.88;;
15385;SDS011;7791;47.246;9.648;2022-07-24T14:17:34;9.77;;;8.82;;
15385;SDS011;7791;47.246;9.648;2022-07-24T14:20:02;10.32;;;8.90;;
15385;SDS011;7791;47.246;9.648;2022-07-24T14:22:33;9.95;;;8.40;;
15385;SDS011;7791;47.246;9.648;2022-07-24T14:24:59;10.27;;;8.93;;
15385;SDS011;7791;47.246;9.648;2022-07-24T14:27:25;10.52;;;8.60;;
15385;SDS011;7791;47.246;9.648;2022-07-24T14:29:52;9.30;;;8.32;;
15385;SDS011;7791;47.246;9.648;2022-07-24T14:32:18;10.18;;;9.18;;
15385;SDS011;7791;47.246;9.648;2022-07-24T14:34:46;9.25;;;8.35;;
15385;SDS011;7791;47.246;9.648;2022-07-24T14:37:28;9.57;;;8.50;;
15385;SDS011;7791;47.246;9.648;2022-07-24T14:39:54;12.32;;;8.85;;
15385;SDS011;7791;47.246;9.648;2022-07-24T14:42:20;9.95;;;8.70;;
15385;SDS011;7791;47.246;9.648;2022-07-24T14:44:48;9.38;;;8.52;;
15385;SDS011;7791;47.246;9.648;2022-07-24T14:47:15;9.48;;;8.57;;
15385;SDS011;7791;47.246;9.648;2022-07-24T14:49:41;11.43;;;8.35;;
15385;SDS011;7791;47.246;9.648;2022-07-24T14:55:20;9.25;;;8.35;;
15385;SDS011;7791;47.246;9.648;2022-07-24T14:57:46;9.13;;;8.20;;
15385;SDS011;7791;47.246;9.648;2022-07-24T15:00:12;8.88;;;7.95;;
15385;SDS011;7791;47.246;9.648;2022-07-24T15:02:39;9.15;;;8.25;;
15385;SDS011;7791;47.246;9.648;2022-07-24T15:05:05;8.75;;;7.85;;
15385;SDS011;7791;47.246;9.648;2022-07-24T15:07:31;12.23;;;7.97;;
15385;SDS011;7791;47.246;9.648;2022-07-24T15:09:57;9.40;;;8.50;;
15385;SDS011;7791;47.246;9.648;2022-07-24T15:12:27;9.93;;;7.82;;
15385;SDS011;7791;47.246;9.648;2022-07-24T15:14:53;11.00;;;7.93;;
15385;SDS011;7791;47.246;9.648;2022-07-24T15:17:19;8.77;;;7.78;;
15385;SDS011;7791;47.246;9.648;2022-07-24T15:19:45;9.13;;;7.90;;
15385;SDS011;7791;47.246;9.648;2022-07-24T15:22:11;8.35;;;7.50;;
15385;SDS011;7791;47.246;9.648;2022-07-24T15:27:34;9.38;;;7.57;;
15385;SDS011;7791;47.246;9.648;2022-07-24T15:29:59;9.43;;;7.72;;
15385;SDS011;7791;47.246;9.648;2022-07-24T15:32:25;7.90;;;7.00;;
15385;SDS011;7791;47.246;9.648;2022-07-24T15:34:51;7.88;;;7.03;;
15385;SDS011;7791;47.246;9.648;2022-07-24T15:37:18;8.38;;;7.28;;
15385;SDS011;7791;47.246;9.648;2022-07-24T15:40:02;7.80;;;6.95;;
15385;SDS011;7791;47.246;9.648;2022-07-24T15:42:28;8.32;;;6.82;;
15385;SDS011;7791;47.246;9.648;2022-07-24T15:44:56;8.68;;;7.00;;
15385;SDS011;7791;47.246;9.648;2022-07-24T15:47:22;8.85;;;7.15;;
15385;SDS011;7791;47.246;9.648;2022-07-24T15:49:49;7.30;;;6.60;;
15385;SDS011;7791;47.246;9.648;2022-07-24T15:52:15;9.13;;;7.45;;
15385;SDS011;7791;47.246;9.648;2022-07-24T15:54:53;10.70;;;7.10;;
15385;SDS011;7791;47.246;9.648;2022-07-24T15:57:20;7.65;;;6.95;;
15385;SDS011;7791;47.246;9.648;2022-07-24T15:59:47;7.95;;;7.15;;
15385;SDS011;7791;47.246;9.648;2022-07-24T16:02:14;9.38;;;7.20;;
15385;SDS011;7791;47.246;9.648;2022-07-24T16:04:41;11.15;;;9.10;;
15385;SDS011;7791;47.246;9.648;2022-07-24T16:07:07;7.40;;;6.63;;
15385;SDS011;7791;47.246;9.648;2022-07-24T16:09:37;8.98;;;7.00;;
15385;SDS011;7791;47.246;9.648;2022-07-24T16:12:03;7.22;;;6.53;;
15385;SDS011;7791;47.246;9.648;2022-07-24T16:14:29;16.63;;;13.65;;
15385;SDS011;7791;47.246;9.648;2022-07-24T16:16:55;33.35;;;29.02;;
15385;SDS011;7791;47.246;9.648;2022-07-24T16:19:25;13.25;;;8.23;;
15385;SDS011;7791;47.246;9.648;2022-07-24T16:21:53;9.32;;;8.32;;
15385;SDS011;7791;47.246;9.648;2022-07-24T16:24:22;11.40;;;7.85;;
15385;SDS011;7791;47.246;9.648;2022-07-24T16:26:48;10.82;;;9.23;;
15385;SDS011;7791;47.246;9.648;2022-07-24T16:29:13;14.85;;;13.02;;
15385;SDS011;7791;47.246;9.648;2022-07-24T16:31:40;7.88;;;7.07;;
15385;SDS011;7791;47.246;9.648;2022-07-24T16:34:06;57.50;;;46.95;;
15385;SDS011;7791;47.246;9.648;2022-07-24T16:36:33;31.20;;;25.23;;
15385;SDS011;7791;47.246;9.648;2022-07-24T16:38:59;13.57;;;10.70;;
15385;SDS011;7791;47.246;9.648;2022-07-24T16:41:25;9.90;;;8.35;;
15385;SDS011;7791;47.246;9.648;2022-07-24T16:43:50;11.02;;;9.48;;
15385;SDS011;7791;47.246;9.648;2022-07-24T16:46:16;8.88;;;7.47;;
15385;SDS011;7791;47.246;9.648;2022-07-24T16:48:43;8.55;;;7.65;;
15385;SDS011;7791;47.246;9.648;2022-07-24T16:51:10;13.63;;;10.57;;
15385;SDS011;7791;47.246;9.648;2022-07-24T16:53:38;10.77;;;9.15;;
15385;SDS011;7791;47.246;9.648;2022-07-24T16:59:04;9.35;;;8.25;;
15385;SDS011;7791;47.246;9.648;2022-07-24T17:01:30;8.60;;;7.72;;
15385;SDS011;7791;47.246;9.648;2022-07-24T17:03:56;11.07;;;8.38;;
15385;SDS011;7791;47.246;9.648;2022-07-24T17:06:22;9.50;;;8.32;;
15385;SDS011;7791;47.246;9.648;2022-07-24T17:08:49;9.70;;;8.20;;
15385;SDS011;7791;47.246;9.648;2022-07-24T17:11:16;9.27;;;7.95;;
15385;SDS011;7791;47.246;9.648;2022-07-24T17:13:42;11.50;;;8.43;;
15385;SDS011;7791;47.246;9.648;2022-07-24T17:16:08;10.93;;;7.57;;
15385;SDS011;7791;47.246;9.648;2022-07-24T17:18:34;9.93;;;8.07;;
15385;SDS011;7791;47.246;9.648;2022-07-24T17:21:00;10.77;;;8.45;;
15385;SDS011;7791;47.246;9.648;2022-07-24T17:23:26;11.13;;;8.35;;
15385;SDS011;7791;47.246;9.648;2022-07-24T17:25:54;11.25;;;8.65;;
15385;SDS011;7791;47.246;9.648;2022-07-24T17:28:20;9.90;;;7.80;;
15385;SDS011;7791;47.246;9.648;2022-07-24T17:30:46;11.98;;;8.15;;
15385;SDS011;7791;47.246;9.648;2022-07-24T17:33:13;10.18;;;8.43;;
15385;SDS011;7791;47.246;9.648;2022-07-24T17:35:40;9.52;;;8.23;;
15385;SDS011;7791;47.246;9.648;2022-07-24T17:38:09;11.82;;;7.85;;
15385;SDS011;7791;47.246;9.648;2022-07-24T17:40:40;9.38;;;7.80;;
15385;SDS011;7791;47.246;9.648;2022-07-24T17:43:08;9.15;;;7.68;;
15385;SDS011;7791;47.246;9.648;2022-07-24T17:45:36;10.80;;;7.88;;
15385;SDS011;7791;47.246;9.648;2022-07-24T17:48:03;10.48;;;8.25;;
15385;SDS011;7791;47.246;9.648;2022-07-24T17:50:29;11.05;;;8.40;;
15385;SDS011;7791;47.246;9.648;2022-07-24T17:52:57;10.60;;;8.30;;
15385;SDS011;7791;47.246;9.648;2022-07-24T17:55:23;10.70;;;8.15;;
15385;SDS011;7791;47.246;9.648;2022-07-24T17:57:49;8.88;;;8.07;;
15385;SDS011;7791;47.246;9.648;2022-07-24T18:00:17;10.32;;;8.25;;
15385;SDS011;7791;47.246;9.648;2022-07-24T18:02:43;12.27;;;8.25;;
15385;SDS011;7791;47.246;9.648;2022-07-24T18:05:10;9.18;;;8.27;;
15385;SDS011;7791;47.246;9.648;2022-07-24T18:07:37;10.07;;;9.07;;
15385;SDS011;7791;47.246;9.648;2022-07-24T18:10:03;11.30;;;8.73;;
15385;SDS011;7791;47.246;9.648;2022-07-24T18:12:32;13.60;;;8.30;;
15385;SDS011;7791;47.246;9.648;2022-07-24T18:14:58;9.88;;;8.23;;
15385;SDS011;7791;47.246;9.648;2022-07-24T18:17:26;14.23;;;8.40;;